sensor_id;sensor_type;location;lat;lon;timestamp;pressure;altitude;pressure_sealevel;temperature;humidity
67430;BME280;54298;52.076;5.264;2023-03-04T00:01:46;102617.0;;;6.79;66.92
67430;BME280;54298;52.076;5.264;2023-03-04T00:03:22;102617.0;;;6.85;66.78
67430;BME280;54298;52.076;5.264;2023-03-04T00:04:59;102615.00000000001;;;6.76;67.14
67430;BME280;54298;52.076;5.264;2023-03-04T00:08:11;102617.0;;;6.8;67.22
67430;BME280;54298;52.076;5.264;2023-03-04T00:09:47;102619.0;;;6.85;67.25
67430;BME280;54298;52.076;5.264;2023-03-04T00:11:23;102618.0;;;6.95;67.02
67430;BME280;54298;52.076;5.264;2023-03-04T00:14:36;102618.0;;;6.92;66.62
67430;BME280;54298;52.076;5.264;2023-03-04T00:16:11;102616.00000000001;;;6.95;66.67
67430;BME280;54298;52.076;5.264;2023-03-04T00:17:48;102613.00000000001;;;7.04;66.49
67430;BME280;54298;52.076;5.264;2023-03-04T00:19:24;102617.0;;;7.07;66.41
67430;BME280;54298;52.076;5.264;2023-03-04T00:22:36;102616.00000000001;;;6.91;67.11
67430;BME280;54298;52.076;5.264;2023-03-04T00:24:12;102614.00000000001;;;6.99;66.73
67430;BME280;54298;52.076;5.264;2023-03-04T00:25:48;102614.00000000001;;;6.73;67.23
67430;BME280;54298;52.076;5.264;2023-03-04T00:29:00;102617.0;;;6.94;66.7
67430;BME280;54298;52.076;5.264;2023-03-04T00:30:37;102620.0;;;6.93;66.66
67430;BME280;54298;52.076;5.264;2023-03-04T00:32:13;102613.00000000001;;;7.13;66.2
67430;BME280;54298;52.076;5.264;2023-03-04T00:35:25;102617.0;;;6.82;67.05
67430;BME280;54298;52.076;5.264;2023-03-04T00:37:01;102625.0;;;7.02;66.78
67430;BME280;54298;52.076;5.264;2023-03-04T00:38:38;102617.0;;;7.19;66.16
67430;BME280;54298;52.076;5.264;2023-03-04T00:41:50;102617.0;;;7.21;66.33
67430;BME280;54298;52.076;5.264;2023-03-04T00:43:26;102617.0;;;7.22;66.19
67430;BME280;54298;52.076;5.264;2023-03-04T00:45:02;102619.0;;;7.2;66.41
67430;BME280;54298;52.076;5.264;2023-03-04T00:46:39;102614.00000000001;;;7.14;66.6
67430;BME280;54298;52.076;5.264;2023-03-04T00:49:51;102617.0;;;7.03;66.86
67430;BME280;54298;52.076;5.264;2023-03-04T00:51:27;102617.0;;;6.82;67.47
67430;BME280;54298;52.076;5.264;2023-03-04T00:53:04;102619.0;;;7.05;67.25
67430;BME280;54298;52.076;5.264;2023-03-04T00:56:17;102618.0;;;7.11;67.05
67430;BME280;54298;52.076;5.264;2023-03-04T00:57:53;102616.00000000001;;;7.07;66.73
67430;BME280;54298;52.076;5.264;2023-03-04T00:59:29;102621.0;;;7.11;66.8
67430;BME280;54298;52.076;5.264;2023-03-04T01:02:42;102622.0;;;7.15;66.7
67430;BME280;54298;52.076;5.264;2023-03-04T01:04:19;102623.0;;;7.03;67.03
67430;BME280;54298;52.076;5.264;2023-03-04T01:05:55;102617.0;;;7.14;66.62
67430;BME280;54298;52.076;5.264;2023-03-04T01:07:31;102617.0;;;7.12;66.75
67430;BME280;54298;52.076;5.264;2023-03-04T01:10:43;102617.0;;;7.27;66.56
67430;BME280;54298;52.076;5.264;2023-03-04T01:12:19;102622.0;;;7.13;66.89
67430;BME280;54298;52.076;5.264;2023-03-04T01:13:55;102624.0;;;7.2;66.97
67430;BME280;54298;52.076;5.264;2023-03-04T01:17:08;102619.0;;;7.1;66.81
67430;BME280;54298;52.076;5.264;2023-03-04T01:18:44;102623.0;;;6.86;66.85
67430;BME280;54298;52.076;5.264;2023-03-04T01:20:20;102621.0;;;6.85;66.77
67430;BME280;54298;52.076;5.264;2023-03-04T01:23:33;102623.0;;;6.87;66.74
67430;BME280;54298;52.076;5.264;2023-03-04T01:25:09;102617.0;;;6.74;67.55
67430;BME280;54298;52.076;5.264;2023-03-04T01:26:46;102620.0;;;6.97;66.83
67430;BME280;54298;52.076;5.264;2023-03-04T01:29:59;102614.00000000001;;;7.06;66.52
67430;BME280;54298;52.076;5.264;2023-03-04T01:31:35;102608.99999999999;;;7.11;66.49
67430;BME280;54298;52.076;5.264;2023-03-04T01:33:11;102608.99999999999;;;7.01;66.69
67430;BME280;54298;52.076;5.264;2023-03-04T01:34:47;102603.0;;;7.0;66.62
67430;BME280;54298;52.076;5.264;2023-03-04T01:38:00;102601.0;;;6.98;66.59
67430;BME280;54298;52.076;5.264;2023-03-04T01:39:36;102601.0;;;6.95;66.11
67430;BME280;54298;52.076;5.264;2023-03-04T01:41:13;102596.0;;;6.9;65.87
67430;BME280;54298;52.076;5.264;2023-03-04T01:44:28;102599.0;;;6.65;66.09
67430;BME280;54298;52.076;5.264;2023-03-04T01:46:05;102590.00000000001;;;6.77;66.08
67430;BME280;54298;52.076;5.264;2023-03-04T01:47:43;102590.00000000001;;;6.86;65.69
67430;BME280;54298;52.076;5.264;2023-03-04T01:49:22;102590.00000000001;;;6.75;66.47
67430;BME280;54298;52.076;5.264;2023-03-04T01:52:35;102590.00000000001;;;6.59;66.5
67430;BME280;54298;52.076;5.264;2023-03-04T01:54:19;102584.99999999999;;;6.68;65.91
67430;BME280;54298;52.076;5.264;2023-03-04T01:56:00;102582.0;;;6.74;66.24
67430;BME280;54298;52.076;5.264;2023-03-04T01:59:17;102580.0;;;6.74;65.95
67430;BME280;54298;52.076;5.264;2023-03-04T02:00:54;102575.0;;;6.81;65.38
67430;BME280;54298;52.076;5.264;2023-03-04T02:02:31;102576.0;;;6.94;65.2
67430;BME280;54298;52.076;5.264;2023-03-04T02:04:07;102575.0;;;6.69;65.13
67430;BME280;54298;52.076;5.264;2023-03-04T02:07:24;102571.0;;;6.61;65.64
67430;BME280;54298;52.076;5.264;2023-03-04T02:09:00;102564.00000000001;;;6.81;65.3
67430;BME280;54298;52.076;5.264;2023-03-04T02:10:37;102561.99999999999;;;6.89;64.97
67430;BME280;54298;52.076;5.264;2023-03-04T02:13:50;102559.99999999999;;;6.92;64.86
67430;BME280;54298;52.076;5.264;2023-03-04T02:15:28;102563.00000000001;;;6.71;65.48
67430;BME280;54298;52.076;5.264;2023-03-04T02:17:08;102565.00000000001;;;6.81;65.36
67430;BME280;54298;52.076;5.264;2023-03-04T02:18:45;102558.0;;;6.95;64.86
67430;BME280;54298;52.076;5.264;2023-03-04T02:22:13;102561.99999999999;;;6.94;64.95
67430;BME280;54298;52.076;5.264;2023-03-04T02:23:55;102552.0;;;6.88;65.38
67430;BME280;54298;52.076;5.264;2023-03-04T02:25:39;102547.0;;;7.0;65.34
67430;BME280;54298;52.076;5.264;2023-03-04T02:27:20;102543.0;;;6.93;65.27
67430;BME280;54298;52.076;5.264;2023-03-04T02:30:34;102543.0;;;6.96;64.72
67430;BME280;54298;52.076;5.264;2023-03-04T02:32:11;102542.0;;;6.92;64.83
67430;BME280;54298;52.076;5.264;2023-03-04T02:33:49;102542.0;;;7.04;64.59
67430;BME280;54298;52.076;5.264;2023-03-04T02:35:26;102541.00000000001;;;6.75;65.27
67430;BME280;54298;52.076;5.264;2023-03-04T02:38:39;102539.00000000001;;;7.15;64.44
67430;BME280;54298;52.076;5.264;2023-03-04T02:40:20;102542.0;;;6.99;64.58
67430;BME280;54298;52.076;5.264;2023-03-04T02:42:00;102540.00000000001;;;7.02;64.49
67430;BME280;54298;52.076;5.264;2023-03-04T02:45:33;102532.0;;;7.02;64.44
67430;BME280;54298;52.076;5.264;2023-03-04T02:47:12;102531.0;;;7.06;64.59
67430;BME280;54298;52.076;5.264;2023-03-04T02:48:49;102531.0;;;7.05;64.41
67430;BME280;54298;52.076;5.264;2023-03-04T02:50:27;102526.0;;;7.02;64.78
67430;BME280;54298;52.076;5.264;2023-03-04T02:52:08;102522.0;;;7.04;64.6
67430;BME280;54298;52.076;5.264;2023-03-04T02:55:24;102525.0;;;6.74;65.24
67430;BME280;54298;52.076;5.264;2023-03-04T02:57:01;102521.0;;;6.88;64.99
67430;BME280;54298;52.076;5.264;2023-03-04T02:58:39;102523.0;;;6.8;65.44
67430;BME280;54298;52.076;5.264;2023-03-04T03:01:51;102522.0;;;6.71;65.58
67430;BME280;54298;52.076;5.264;2023-03-04T03:03:28;102520.0;;;6.87;65.3
67430;BME280;54298;52.076;5.264;2023-03-04T03:05:05;102524.0;;;6.8;65.16
67430;BME280;54298;52.076;5.264;2023-03-04T03:08:19;102518.0;;;6.89;65.02
67430;BME280;54298;52.076;5.264;2023-03-04T03:09:55;102519.0;;;6.98;64.91
67430;BME280;54298;52.076;5.264;2023-03-04T03:11:31;102518.0;;;7.08;64.75
67430;BME280;54298;52.076;5.264;2023-03-04T03:13:07;102513.00000000001;;;7.12;64.69
67430;BME280;54298;52.076;5.264;2023-03-04T03:16:19;102514.00000000001;;;7.09;64.83
67430;BME280;54298;52.076;5.264;2023-03-04T03:17:56;102516.00000000001;;;7.08;64.78
67430;BME280;54298;52.076;5.264;2023-03-04T03:19:32;102517.0;;;7.02;64.81
67430;BME280;54298;52.076;5.264;2023-03-04T03:22:45;102511.99999999999;;;6.86;65.19
67430;BME280;54298;52.076;5.264;2023-03-04T03:24:22;102514.00000000001;;;6.86;65.41
67430;BME280;54298;52.076;5.264;2023-03-04T03:25:58;102507.0;;;6.97;64.97
67430;BME280;54298;52.076;5.264;2023-03-04T03:29:10;102508.99999999999;;;7.12;64.64
67430;BME280;54298;52.076;5.264;2023-03-04T03:30:46;102505.0;;;6.9;65.08
67430;BME280;54298;52.076;5.264;2023-03-04T03:32:23;102500.0;;;6.91;65.02
67430;BME280;54298;52.076;5.264;2023-03-04T03:33:59;102501.0;;;6.6;65.66
67430;BME280;54298;52.076;5.264;2023-03-04T03:37:11;102497.0;;;6.96;64.97
67430;BME280;54298;52.076;5.264;2023-03-04T03:38:48;102500.0;;;7.03;64.72
67430;BME280;54298;52.076;5.264;2023-03-04T03:40:24;102498.0;;;7.1;64.66
67430;BME280;54298;52.076;5.264;2023-03-04T03:43:37;102497.0;;;7.1;64.77
67430;BME280;54298;52.076;5.264;2023-03-04T03:45:13;102500.0;;;6.96;64.94
67430;BME280;54298;52.076;5.264;2023-03-04T03:46:49;102497.0;;;6.95;65.05
67430;BME280;54298;52.076;5.264;2023-03-04T03:50:02;102505.0;;;6.94;65.27
67430;BME280;54298;52.076;5.264;2023-03-04T03:51:38;102498.0;;;6.79;65.69
67430;BME280;54298;52.076;5.264;2023-03-04T03:53:14;102499.0;;;6.76;66.05
67430;BME280;54298;52.076;5.264;2023-03-04T03:54:51;102501.0;;;6.89;65.84
67430;BME280;54298;52.076;5.264;2023-03-04T03:58:03;102500.0;;;6.96;65.98
67430;BME280;54298;52.076;5.264;2023-03-04T03:59:39;102498.0;;;6.99;65.74
67430;BME280;54298;52.076;5.264;2023-03-04T04:01:15;102506.0;;;6.73;66.58
67430;BME280;54298;52.076;5.264;2023-03-04T04:04:30;102506.0;;;6.89;66.36
67430;BME280;54298;52.076;5.264;2023-03-04T04:06:06;102508.0;;;6.8;66.62
67430;BME280;54298;52.076;5.264;2023-03-04T04:07:42;102508.0;;;6.77;67.13
67430;BME280;54298;52.076;5.264;2023-03-04T04:10:54;102514.00000000001;;;6.74;67.41
67430;BME280;54298;52.076;5.264;2023-03-04T04:12:31;102517.0;;;6.76;67.34
67430;BME280;54298;52.076;5.264;2023-03-04T04:14:08;102515.00000000001;;;6.5;67.63
67430;BME280;54298;52.076;5.264;2023-03-04T04:15:46;102516.00000000001;;;6.6;66.67
67430;BME280;54298;52.076;5.264;2023-03-04T04:18:58;102514.00000000001;;;6.41;67.2
67430;BME280;54298;52.076;5.264;2023-03-04T04:20:35;102515.00000000001;;;6.55;66.94
67430;BME280;54298;52.076;5.264;2023-03-04T04:22:13;102516.00000000001;;;6.54;67.24
67430;BME280;54298;52.076;5.264;2023-03-04T04:25:27;102517.0;;;6.67;66.91
67430;BME280;54298;52.076;5.264;2023-03-04T04:27:03;102517.0;;;6.74;66.48
67430;BME280;54298;52.076;5.264;2023-03-04T04:28:39;102516.00000000001;;;6.75;66.6
67430;BME280;54298;52.076;5.264;2023-03-04T04:31:52;102516.00000000001;;;6.91;66.14
67430;BME280;54298;52.076;5.264;2023-03-04T04:33:28;102509.99999999999;;;6.93;66.0
67430;BME280;54298;52.076;5.264;2023-03-04T04:35:05;102514.00000000001;;;6.96;66.12
67430;BME280;54298;52.076;5.264;2023-03-04T04:36:42;102515.00000000001;;;6.79;67.14
67430;BME280;54298;52.076;5.264;2023-03-04T04:39:55;102511.99999999999;;;6.83;67.14
67430;BME280;54298;52.076;5.264;2023-03-04T04:41:35;102508.0;;;6.85;67.36
67430;BME280;54298;52.076;5.264;2023-03-04T04:43:12;102511.99999999999;;;6.95;67.13
67430;BME280;54298;52.076;5.264;2023-03-04T04:46:24;102517.0;;;6.83;67.58
67430;BME280;54298;52.076;5.264;2023-03-04T04:48:02;102517.0;;;6.92;67.41
67430;BME280;54298;52.076;5.264;2023-03-04T04:49:38;102518.0;;;6.99;67.19
67430;BME280;54298;52.076;5.264;2023-03-04T04:52:50;102508.0;;;6.98;67.41
67430;BME280;54298;52.076;5.264;2023-03-04T04:54:27;102516.00000000001;;;7.01;67.64
67430;BME280;54298;52.076;5.264;2023-03-04T04:56:12;102516.00000000001;;;7.02;67.66
67430;BME280;54298;52.076;5.264;2023-03-04T04:57:49;102516.00000000001;;;7.02;68.19
67430;BME280;54298;52.076;5.264;2023-03-04T05:01:02;102516.00000000001;;;6.72;69.62
67430;BME280;54298;52.076;5.264;2023-03-04T05:02:39;102517.0;;;6.87;69.72
67430;BME280;54298;52.076;5.264;2023-03-04T05:04:15;102517.0;;;6.67;70.67
67430;BME280;54298;52.076;5.264;2023-03-04T05:07:27;102517.0;;;6.42;71.91
67430;BME280;54298;52.076;5.264;2023-03-04T05:09:04;102513.00000000001;;;6.59;72.02
67430;BME280;54298;52.076;5.264;2023-03-04T05:10:39;102513.00000000001;;;6.65;71.78
67430;BME280;54298;52.076;5.264;2023-03-04T05:12:16;102517.0;;;6.62;72.02
67430;BME280;54298;52.076;5.264;2023-03-04T05:15:29;102511.99999999999;;;6.62;72.13
67430;BME280;54298;52.076;5.264;2023-03-04T05:17:05;102508.99999999999;;;6.7;71.86
67430;BME280;54298;52.076;5.264;2023-03-04T05:18:42;102514.00000000001;;;6.74;71.69
67430;BME280;54298;52.076;5.264;2023-03-04T05:21:53;102514.00000000001;;;6.78;71.53
67430;BME280;54298;52.076;5.264;2023-03-04T05:23:32;102515.00000000001;;;6.55;71.87
67430;BME280;54298;52.076;5.264;2023-03-04T05:25:09;102515.00000000001;;;6.75;71.41
67430;BME280;54298;52.076;5.264;2023-03-04T05:28:22;102517.0;;;6.76;71.16
67430;BME280;54298;52.076;5.264;2023-03-04T05:29:58;102516.00000000001;;;6.64;71.8
67430;BME280;54298;52.076;5.264;2023-03-04T05:31:34;102516.00000000001;;;6.7;71.72
67430;BME280;54298;52.076;5.264;2023-03-04T05:33:12;102521.0;;;6.73;71.55
67430;BME280;54298;52.076;5.264;2023-03-04T05:36:26;102519.0;;;6.73;71.55
67430;BME280;54298;52.076;5.264;2023-03-04T05:38:03;102521.0;;;6.64;71.58
67430;BME280;54298;52.076;5.264;2023-03-04T05:39:39;102522.0;;;6.74;71.69
67430;BME280;54298;52.076;5.264;2023-03-04T05:42:52;102522.0;;;6.68;71.87
67430;BME280;54298;52.076;5.264;2023-03-04T05:44:28;102522.0;;;6.83;71.44
67430;BME280;54298;52.076;5.264;2023-03-04T05:46:04;102522.0;;;6.8;71.59
67430;BME280;54298;52.076;5.264;2023-03-04T05:49:16;102524.0;;;6.71;71.83
67430;BME280;54298;52.076;5.264;2023-03-04T05:50:53;102526.0;;;6.59;72.22
67430;BME280;54298;52.076;5.264;2023-03-04T05:52:29;102525.0;;;6.52;72.62
67430;BME280;54298;52.076;5.264;2023-03-04T05:54:05;102522.0;;;6.57;72.62
67430;BME280;54298;52.076;5.264;2023-03-04T05:57:21;102520.0;;;6.67;72.48
67430;BME280;54298;52.076;5.264;2023-03-04T05:58:57;102517.0;;;6.79;72.05
67430;BME280;54298;52.076;5.264;2023-03-04T06:00:34;102511.99999999999;;;6.68;72.2
67430;BME280;54298;52.076;5.264;2023-03-04T06:03:46;102518.0;;;6.7;72.38
67430;BME280;54298;52.076;5.264;2023-03-04T06:05:23;102519.0;;;6.78;72.08
67430;BME280;54298;52.076;5.264;2023-03-04T06:06:59;102520.0;;;6.78;72.19
67430;BME280;54298;52.076;5.264;2023-03-04T06:10:13;102518.0;;;6.75;72.08
67430;BME280;54298;52.076;5.264;2023-03-04T06:11:50;102517.0;;;6.76;71.94
67430;BME280;54298;52.076;5.264;2023-03-04T06:13:26;102517.0;;;6.83;71.84
67430;BME280;54298;52.076;5.264;2023-03-04T06:15:03;102515.00000000001;;;6.86;71.78
67430;BME280;54298;52.076;5.264;2023-03-04T06:18:16;102514.00000000001;;;6.73;72.19
67430;BME280;54298;52.076;5.264;2023-03-04T06:19:52;102513.00000000001;;;6.74;72.22
67430;BME280;54298;52.076;5.264;2023-03-04T06:21:29;102514.00000000001;;;6.76;72.13
67430;BME280;54298;52.076;5.264;2023-03-04T06:24:42;102518.0;;;6.83;71.91
67430;BME280;54298;52.076;5.264;2023-03-04T06:26:18;102513.00000000001;;;6.7;72.38
67430;BME280;54298;52.076;5.264;2023-03-04T06:27:54;102516.00000000001;;;6.69;72.44
67430;BME280;54298;52.076;5.264;2023-03-04T06:31:07;102518.0;;;6.78;72.16
67430;BME280;54298;52.076;5.264;2023-03-04T06:32:44;102519.0;;;6.83;71.72
67430;BME280;54298;52.076;5.264;2023-03-04T06:34:20;102514.00000000001;;;6.8;71.78
67430;BME280;54298;52.076;5.264;2023-03-04T06:35:56;102517.0;;;6.87;71.69
67430;BME280;54298;52.076;5.264;2023-03-04T06:39:09;102521.0;;;6.82;71.87
67430;BME280;54298;52.076;5.264;2023-03-04T06:40:45;102522.0;;;6.82;71.8
67430;BME280;54298;52.076;5.264;2023-03-04T06:42:21;102522.0;;;6.83;71.69
67430;BME280;54298;52.076;5.264;2023-03-04T06:45:33;102523.0;;;6.79;71.91
67430;BME280;54298;52.076;5.264;2023-03-04T06:47:09;102521.0;;;6.78;72.08
67430;BME280;54298;52.076;5.264;2023-03-04T06:48:45;102522.0;;;6.71;72.56
67430;BME280;54298;52.076;5.264;2023-03-04T06:51:59;102523.0;;;6.75;72.41
67430;BME280;54298;52.076;5.264;2023-03-04T06:53:36;102526.0;;;6.82;72.52
67430;BME280;54298;52.076;5.264;2023-03-04T06:55:12;102525.0;;;6.83;72.49
67430;BME280;54298;52.076;5.264;2023-03-04T06:58:24;102527.0;;;6.85;72.37
67430;BME280;54298;52.076;5.264;2023-03-04T07:00:00;102522.0;;;6.86;72.63
67430;BME280;54298;52.076;5.264;2023-03-04T07:01:36;102523.0;;;6.81;72.83
67430;BME280;54298;52.076;5.264;2023-03-04T07:03:13;102526.0;;;6.74;73.19
67430;BME280;54298;52.076;5.264;2023-03-04T07:06:26;102532.0;;;6.73;73.25
67430;BME280;54298;52.076;5.264;2023-03-04T07:08:03;102529.0;;;6.41;74.47
67430;BME280;54298;52.076;5.264;2023-03-04T07:09:39;102533.0;;;6.71;73.94
67430;BME280;54298;52.076;5.264;2023-03-04T07:12:55;102539.00000000001;;;6.79;73.3
67430;BME280;54298;52.076;5.264;2023-03-04T07:14:31;102542.0;;;6.92;72.92
67430;BME280;54298;52.076;5.264;2023-03-04T07:16:09;102540.00000000001;;;6.95;72.81
67430;BME280;54298;52.076;5.264;2023-03-04T07:17:47;102540.00000000001;;;7.08;72.48
67430;BME280;54298;52.076;5.264;2023-03-04T07:21:00;102542.0;;;7.04;72.86
67430;BME280;54298;52.076;5.264;2023-03-04T07:22:36;102545.0;;;7.0;73.66
67430;BME280;54298;52.076;5.264;2023-03-04T07:24:12;102541.00000000001;;;6.65;75.86
67430;BME280;54298;52.076;5.264;2023-03-04T07:27:26;102542.0;;;6.47;77.02
67430;BME280;54298;52.076;5.264;2023-03-04T07:29:03;102542.0;;;6.41;77.2
67430;BME280;54298;52.076;5.264;2023-03-04T07:30:39;102533.99999999999;;;6.67;76.73
67430;BME280;54298;52.076;5.264;2023-03-04T07:33:55;102538.00000000001;;;6.73;76.05
67430;BME280;54298;52.076;5.264;2023-03-04T07:35:32;102544.0;;;6.74;76.58
67430;BME280;54298;52.076;5.264;2023-03-04T07:37:08;102544.0;;;6.47;76.98
67430;BME280;54298;52.076;5.264;2023-03-04T07:38:45;102545.0;;;6.6;76.99
67430;BME280;54298;52.076;5.264;2023-03-04T07:41:58;102547.0;;;6.63;76.94
67430;BME280;54298;52.076;5.264;2023-03-04T07:43:35;102542.0;;;6.95;75.75
67430;BME280;54298;52.076;5.264;2023-03-04T07:45:11;102539.00000000001;;;6.77;76.33
67430;BME280;54298;52.076;5.264;2023-03-04T07:48:23;102544.0;;;7.03;75.17
67430;BME280;54298;52.076;5.264;2023-03-04T07:49:59;102547.0;;;6.97;75.09
67430;BME280;54298;52.076;5.264;2023-03-04T07:51:36;102547.0;;;7.16;74.72
67430;BME280;54298;52.076;5.264;2023-03-04T07:54:49;102547.0;;;7.23;74.08
67430;BME280;54298;52.076;5.264;2023-03-04T07:56:28;102548.0;;;7.31;73.72
67430;BME280;54298;52.076;5.264;2023-03-04T07:58:04;102550.0;;;7.18;74.36
67430;BME280;54298;52.076;5.264;2023-03-04T07:59:40;102547.0;;;7.35;73.5
67430;BME280;54298;52.076;5.264;2023-03-04T08:02:56;102548.0;;;7.38;73.0
67430;BME280;54298;52.076;5.264;2023-03-04T08:04:32;102552.0;;;7.17;73.52
67430;BME280;54298;52.076;5.264;2023-03-04T08:06:10;102552.0;;;7.24;73.33
67430;BME280;54298;52.076;5.264;2023-03-04T08:09:23;102552.0;;;7.34;73.11
67430;BME280;54298;52.076;5.264;2023-03-04T08:11:03;102554.0;;;7.34;73.19
67430;BME280;54298;52.076;5.264;2023-03-04T08:12:39;102553.0;;;7.48;73.02
67430;BME280;54298;52.076;5.264;2023-03-04T08:14:15;102561.99999999999;;;7.55;72.66
67430;BME280;54298;52.076;5.264;2023-03-04T08:17:31;102567.0;;;7.56;72.8
67430;BME280;54298;52.076;5.264;2023-03-04T08:19:07;102561.99999999999;;;7.46;73.47
67430;BME280;54298;52.076;5.264;2023-03-04T08:20:44;102566.00000000001;;;7.57;72.67
67430;BME280;54298;52.076;5.264;2023-03-04T08:23:58;102565.00000000001;;;7.49;72.83
67430;BME280;54298;52.076;5.264;2023-03-04T08:25:37;102567.0;;;7.56;72.55
67430;BME280;54298;52.076;5.264;2023-03-04T08:27:14;102567.0;;;7.63;72.63
67430;BME280;54298;52.076;5.264;2023-03-04T08:30:27;102566.00000000001;;;7.68;72.86
67430;BME280;54298;52.076;5.264;2023-03-04T08:32:04;102567.0;;;7.64;73.16
67430;BME280;54298;52.076;5.264;2023-03-04T08:33:39;102567.0;;;7.75;73.06
67430;BME280;54298;52.076;5.264;2023-03-04T08:35:16;102561.99999999999;;;7.71;73.08
67430;BME280;54298;52.076;5.264;2023-03-04T08:38:29;102568.0;;;7.71;72.69
67430;BME280;54298;52.076;5.264;2023-03-04T08:40:06;102567.0;;;7.76;72.58
67430;BME280;54298;52.076;5.264;2023-03-04T08:41:44;102569.0;;;7.71;72.56
67430;BME280;54298;52.076;5.264;2023-03-04T08:44:59;102570.0;;;7.81;72.42
67430;BME280;54298;52.076;5.264;2023-03-04T08:46:37;102567.0;;;7.89;72.11
67430;BME280;54298;52.076;5.264;2023-03-04T08:48:13;102565.00000000001;;;8.01;71.75
67430;BME280;54298;52.076;5.264;2023-03-04T08:49:52;102567.0;;;8.06;71.72
67430;BME280;54298;52.076;5.264;2023-03-04T08:53:04;102566.00000000001;;;8.11;71.59
67430;BME280;54298;52.076;5.264;2023-03-04T08:54:40;102564.00000000001;;;8.15;71.37
67430;BME280;54298;52.076;5.264;2023-03-04T08:56:17;102559.99999999999;;;7.97;72.11
67430;BME280;54298;52.076;5.264;2023-03-04T08:59:30;102563.00000000001;;;7.86;72.41
67430;BME280;54298;52.076;5.264;2023-03-04T09:01:07;102558.0;;;7.6;73.27
67430;BME280;54298;52.076;5.264;2023-03-04T09:02:44;102556.0;;;7.8;73.08
67430;BME280;54298;52.076;5.264;2023-03-04T09:05:56;102555.0;;;7.66;73.62
67430;BME280;54298;52.076;5.264;2023-03-04T09:07:32;102557.0;;;7.8;74.02
67430;BME280;54298;52.076;5.264;2023-03-04T09:09:09;102558.99999999999;;;7.91;74.03
67430;BME280;54298;52.076;5.264;2023-03-04T09:10:45;102556.0;;;8.01;74.08
67430;BME280;54298;52.076;5.264;2023-03-04T09:13:58;102556.0;;;7.98;74.19
67430;BME280;54298;52.076;5.264;2023-03-04T09:15:34;102555.0;;;8.09;73.86
67430;BME280;54298;52.076;5.264;2023-03-04T09:17:10;102565.00000000001;;;7.98;74.42
67430;BME280;54298;52.076;5.264;2023-03-04T09:20:23;102555.0;;;7.63;76.06
67430;BME280;54298;52.076;5.264;2023-03-04T09:22:00;102555.0;;;7.4;77.33
67430;BME280;54298;52.076;5.264;2023-03-04T09:23:37;102556.0;;;7.51;77.42
67430;BME280;54298;52.076;5.264;2023-03-04T09:26:50;102561.99999999999;;;7.44;77.98
67430;BME280;54298;52.076;5.264;2023-03-04T09:28:26;102558.0;;;7.54;78.36
67430;BME280;54298;52.076;5.264;2023-03-04T09:30:04;102555.0;;;7.66;78.19
67430;BME280;54298;52.076;5.264;2023-03-04T09:31:40;102558.0;;;7.37;79.2
67430;BME280;54298;52.076;5.264;2023-03-04T09:34:53;102558.0;;;7.77;78.37
67430;BME280;54298;52.076;5.264;2023-03-04T09:36:29;102558.0;;;7.85;78.38
67430;BME280;54298;52.076;5.264;2023-03-04T09:38:05;102559.99999999999;;;7.98;78.84
67430;BME280;54298;52.076;5.264;2023-03-04T09:41:21;102552.0;;;7.98;79.24
67430;BME280;54298;52.076;5.264;2023-03-04T09:43:01;102550.0;;;7.87;80.47
67430;BME280;54298;52.076;5.264;2023-03-04T09:44:40;102552.0;;;7.97;80.59
67430;BME280;54298;52.076;5.264;2023-03-04T09:46:22;102549.0;;;7.94;80.59
67430;BME280;54298;52.076;5.264;2023-03-04T09:49:44;102548.0;;;7.96;80.87
67430;BME280;54298;52.076;5.264;2023-03-04T09:51:42;102546.0;;;8.15;80.55
67430;BME280;54298;52.076;5.264;2023-03-04T09:53:22;102546.0;;;8.18;80.69
67430;BME280;54298;52.076;5.264;2023-03-04T09:55:14;102541.00000000001;;;8.26;80.91
67430;BME280;54298;52.076;5.264;2023-03-04T09:56:59;102540.00000000001;;;8.32;80.86
67430;BME280;54298;52.076;5.264;2023-03-04T10:00:32;102542.0;;;8.44;80.41
67430;BME280;54298;52.076;5.264;2023-03-04T10:02:16;102540.00000000001;;;8.51;79.41
67430;BME280;54298;52.076;5.264;2023-03-04T10:03:58;102534.99999999999;;;8.55;78.25
67430;BME280;54298;52.076;5.264;2023-03-04T10:05:41;102540.00000000001;;;8.45;79.14
67430;BME280;54298;52.076;5.264;2023-03-04T10:07:25;102538.00000000001;;;8.53;78.17
67430;BME280;54298;52.076;5.264;2023-03-04T10:10:54;102538.00000000001;;;8.48;78.41
67430;BME280;54298;52.076;5.264;2023-03-04T10:12:33;102541.00000000001;;;8.64;78.44
67430;BME280;54298;52.076;5.264;2023-03-04T10:14:27;102531.0;;;8.23;78.44
67430;BME280;54298;52.076;5.264;2023-03-04T10:16:12;102542.0;;;8.23;79.66
67430;BME280;54298;52.076;5.264;2023-03-04T10:17:58;102533.0;;;8.18;78.7
67430;BME280;54298;52.076;5.264;2023-03-04T10:21:29;102533.0;;;7.94;79.8
67430;BME280;54298;52.076;5.264;2023-03-04T10:23:13;102533.0;;;7.98;79.87
67430;BME280;54298;52.076;5.264;2023-03-04T10:24:55;102530.0;;;7.89;79.89
67430;BME280;54298;52.076;5.264;2023-03-04T10:26:32;102528.0;;;8.02;79.0
67430;BME280;54298;52.076;5.264;2023-03-04T10:28:11;102525.0;;;8.07;79.52
67430;BME280;54298;52.076;5.264;2023-03-04T10:31:32;102518.0;;;8.17;78.3
67430;BME280;54298;52.076;5.264;2023-03-04T10:33:12;102522.0;;;8.47;77.99
67430;BME280;54298;52.076;5.264;2023-03-04T10:34:48;102509.99999999999;;;8.4;76.55
67430;BME280;54298;52.076;5.264;2023-03-04T10:38:20;102508.0;;;8.49;76.41
67430;BME280;54298;52.076;5.264;2023-03-04T10:40:00;102515.00000000001;;;8.48;74.72
67430;BME280;54298;52.076;5.264;2023-03-04T10:41:41;102516.00000000001;;;8.64;74.66
67430;BME280;54298;52.076;5.264;2023-03-04T10:43:20;102519.0;;;8.76;74.87
67430;BME280;54298;52.076;5.264;2023-03-04T10:44:57;102516.00000000001;;;8.9;73.94
67430;BME280;54298;52.076;5.264;2023-03-04T10:48:19;102519.0;;;8.78;73.77